Terminal Aerodrome Forecast
Issued by NWS

Home | Current Version | Previous Version | Text Only | Print | Product List | Glossary On
Versions: 1 2 3 4 5 6 7 8 9 10 11 12 13 14 15
000
FTUS43 KDLH 230300 AAA
TAFBRD
TAF AMD
KBRD 230302Z 2303/2324 07006KT 3SM -SNDZ BR OVC006
      TEMPO 2304/2308 2SM -SN BR OVC005
     FM230800 03006KT 2SM BR OVC008
     FM231500 01009G15KT 2SM -DZSN BR OVC007
     FM232200 35007KT 5SM -SN BR OVC010=

USA.gov is the U.S. government's official web portal to all federal, state and local government web resources and services.